sensor_id;sensor_type;location;lat;lon;timestamp;temperature;humidity
70830;SHT30;58451;51.550;7.208;2023-08-07T00:00:37;13.64;87.03
70830;SHT30;58451;51.550;7.208;2023-08-07T00:02:09;13.64;87.02
70830;SHT30;58451;51.550;7.208;2023-08-07T00:03:41;13.64;87.03
70830;SHT30;58451;51.550;7.208;2023-08-07T00:05:13;13.63;87.10
70830;SHT30;58451;51.550;7.208;2023-08-07T00:06:45;13.63;87.08
70830;SHT30;58451;51.550;7.208;2023-08-07T00:08:17;13.64;87.07
70830;SHT30;58451;51.550;7.208;2023-08-07T00:09:49;13.64;87.13
70830;SHT30;58451;51.550;7.208;2023-08-07T00:11:21;13.62;87.13
70830;SHT30;58451;51.550;7.208;2023-08-07T00:12:53;13.62;87.17
70830;SHT30;58451;51.550;7.208;2023-08-07T00:14:25;13.62;87.23
70830;SHT30;58451;51.550;7.208;2023-08-07T00:15:57;13.63;87.20
70830;SHT30;58451;51.550;7.208;2023-08-07T00:17:28;13.63;87.37
70830;SHT30;58451;51.550;7.208;2023-08-07T00:19:01;13.62;87.60
70830;SHT30;58451;51.550;7.208;2023-08-07T00:20:34;13.62;87.53
70830;SHT30;58451;51.550;7.208;2023-08-07T00:22:06;13.61;87.48
70830;SHT30;58451;51.550;7.208;2023-08-07T00:23:37;13.62;87.47
70830;SHT30;58451;51.550;7.208;2023-08-07T00:25:09;13.62;87.55
70830;SHT30;58451;51.550;7.208;2023-08-07T00:26:41;13.61;87.65
70830;SHT30;58451;51.550;7.208;2023-08-07T00:28:13;13.62;87.53
70830;SHT30;58451;51.550;7.208;2023-08-07T00:29:45;13.64;87.50
70830;SHT30;58451;51.550;7.208;2023-08-07T00:31:17;13.65;87.52
70830;SHT30;58451;51.550;7.208;2023-08-07T00:32:49;13.66;87.53
70830;SHT30;58451;51.550;7.208;2023-08-07T00:34:21;13.67;87.52
70830;SHT30;58451;51.550;7.208;2023-08-07T00:35:53;13.67;87.47
70830;SHT30;58451;51.550;7.208;2023-08-07T00:37:25;13.68;87.52
70830;SHT30;58451;51.550;7.208;2023-08-07T00:38:56;13.69;87.47
70830;SHT30;58451;51.550;7.208;2023-08-07T00:40:28;13.69;87.43
70830;SHT30;58451;51.550;7.208;2023-08-07T00:42:11;13.69;87.45
70830;SHT30;58451;51.550;7.208;2023-08-07T00:43:43;13.70;87.58
70830;SHT30;58451;51.550;7.208;2023-08-07T00:45:15;13.71;87.55
70830;SHT30;58451;51.550;7.208;2023-08-07T00:46:49;13.71;87.60
70830;SHT30;58451;51.550;7.208;2023-08-07T00:48:21;13.72;87.55
70830;SHT30;58451;51.550;7.208;2023-08-07T00:49:53;13.72;87.60
70830;SHT30;58451;51.550;7.208;2023-08-07T00:51:28;13.72;87.55
70830;SHT30;58451;51.550;7.208;2023-08-07T00:53:01;13.73;87.50
70830;SHT30;58451;51.550;7.208;2023-08-07T00:54:33;13.73;87.50
70830;SHT30;58451;51.550;7.208;2023-08-07T00:56:05;13.73;87.48
70830;SHT30;58451;51.550;7.208;2023-08-07T00:57:37;13.74;87.48
70830;SHT30;58451;51.550;7.208;2023-08-07T00:59:09;13.73;87.45
70830;SHT30;58451;51.550;7.208;2023-08-07T01:00:42;13.73;87.50
70830;SHT30;58451;51.550;7.208;2023-08-07T01:02:14;13.73;87.48
70830;SHT30;58451;51.550;7.208;2023-08-07T01:03:46;13.70;87.40
70830;SHT30;58451;51.550;7.208;2023-08-07T01:05:18;13.72;87.40
70830;SHT30;58451;51.550;7.208;2023-08-07T01:06:50;13.72;87.42
70830;SHT30;58451;51.550;7.208;2023-08-07T01:08:23;13.71;87.37
70830;SHT30;58451;51.550;7.208;2023-08-07T01:09:56;13.71;87.35
70830;SHT30;58451;51.550;7.208;2023-08-07T01:11:36;13.72;87.35
70830;SHT30;58451;51.550;7.208;2023-08-07T01:13:34;13.70;87.30
70830;SHT30;58451;51.550;7.208;2023-08-07T01:15:25;13.68;87.30
70830;SHT30;58451;51.550;7.208;2023-08-07T01:17:10;13.68;87.32
70830;SHT30;58451;51.550;7.208;2023-08-07T01:18:46;13.66;87.27
70830;SHT30;58451;51.550;7.208;2023-08-07T01:20:20;13.66;87.22
70830;SHT30;58451;51.550;7.208;2023-08-07T01:23:47;13.64;87.35
70830;SHT30;58451;51.550;7.208;2023-08-07T01:25:20;13.64;87.35
70830;SHT30;58451;51.550;7.208;2023-08-07T01:26:52;13.62;87.33
70830;SHT30;58451;51.550;7.208;2023-08-07T01:28:32;13.60;87.35
70830;SHT30;58451;51.550;7.208;2023-08-07T01:30:11;13.59;87.47
70830;SHT30;58451;51.550;7.208;2023-08-07T01:31:57;13.56;87.55
70830;SHT30;58451;51.550;7.208;2023-08-07T01:33:56;13.56;87.45
70830;SHT30;58451;51.550;7.208;2023-08-07T01:35:39;13.55;87.50
70830;SHT30;58451;51.550;7.208;2023-08-07T01:37:15;13.54;87.50
70830;SHT30;58451;51.550;7.208;2023-08-07T01:38:49;13.55;87.50
70830;SHT30;58451;51.550;7.208;2023-08-07T01:40:24;13.54;87.50
70830;SHT30;58451;51.550;7.208;2023-08-07T01:41:57;13.53;87.57
70830;SHT30;58451;51.550;7.208;2023-08-07T01:43:31;13.52;87.60
70830;SHT30;58451;51.550;7.208;2023-08-07T01:45:05;13.51;87.60
70830;SHT30;58451;51.550;7.208;2023-08-07T01:46:37;13.49;87.60
70830;SHT30;58451;51.550;7.208;2023-08-07T01:48:09;13.47;87.62
70830;SHT30;58451;51.550;7.208;2023-08-07T01:49:41;13.47;87.58
70830;SHT30;58451;51.550;7.208;2023-08-07T01:51:14;13.46;87.60
70830;SHT30;58451;51.550;7.208;2023-08-07T01:52:45;13.45;87.53
70830;SHT30;58451;51.550;7.208;2023-08-07T01:54:21;13.45;87.55
70830;SHT30;58451;51.550;7.208;2023-08-07T01:55:52;13.44;87.58
70830;SHT30;58451;51.550;7.208;2023-08-07T01:57:24;13.44;87.58
70830;SHT30;58451;51.550;7.208;2023-08-07T01:58:56;13.43;87.58
70830;SHT30;58451;51.550;7.208;2023-08-07T02:00:28;13.44;87.70
70830;SHT30;58451;51.550;7.208;2023-08-07T02:02:00;13.43;87.62
70830;SHT30;58451;51.550;7.208;2023-08-07T02:03:32;13.42;87.68
70830;SHT30;58451;51.550;7.208;2023-08-07T02:05:04;13.42;87.72
70830;SHT30;58451;51.550;7.208;2023-08-07T02:06:36;13.41;87.77
70830;SHT30;58451;51.550;7.208;2023-08-07T02:08:08;13.39;87.72
70830;SHT30;58451;51.550;7.208;2023-08-07T02:09:40;13.38;87.73
70830;SHT30;58451;51.550;7.208;2023-08-07T02:11:12;13.37;87.80
70830;SHT30;58451;51.550;7.208;2023-08-07T02:12:44;13.36;87.87
70830;SHT30;58451;51.550;7.208;2023-08-07T02:14:16;13.36;87.88
70830;SHT30;58451;51.550;7.208;2023-08-07T02:15:48;13.37;87.83
70830;SHT30;58451;51.550;7.208;2023-08-07T02:17:20;13.36;87.95
70830;SHT30;58451;51.550;7.208;2023-08-07T02:18:54;13.36;87.95
70830;SHT30;58451;51.550;7.208;2023-08-07T02:20:26;13.35;87.93
70830;SHT30;58451;51.550;7.208;2023-08-07T02:21:58;13.36;87.87
70830;SHT30;58451;51.550;7.208;2023-08-07T02:23:29;13.36;87.93
70830;SHT30;58451;51.550;7.208;2023-08-07T02:25:01;13.36;87.95
70830;SHT30;58451;51.550;7.208;2023-08-07T02:26:33;13.36;87.92
70830;SHT30;58451;51.550;7.208;2023-08-07T02:28:05;13.37;87.98
70830;SHT30;58451;51.550;7.208;2023-08-07T02:29:37;13.36;87.92
70830;SHT30;58451;51.550;7.208;2023-08-07T02:31:09;13.38;87.97
70830;SHT30;58451;51.550;7.208;2023-08-07T02:32:41;13.39;87.92
70830;SHT30;58451;51.550;7.208;2023-08-07T02:34:15;13.39;87.92
70830;SHT30;58451;51.550;7.208;2023-08-07T02:35:47;13.38;87.92
70830;SHT30;58451;51.550;7.208;2023-08-07T02:37:19;13.40;87.92
70830;SHT30;58451;51.550;7.208;2023-08-07T02:38:52;13.40;87.88
70830;SHT30;58451;51.550;7.208;2023-08-07T02:40:25;13.42;87.92
70830;SHT30;58451;51.550;7.208;2023-08-07T02:41:59;13.41;87.88
70830;SHT30;58451;51.550;7.208;2023-08-07T02:43:31;13.43;87.87
70830;SHT30;58451;51.550;7.208;2023-08-07T02:45:04;13.44;87.90
70830;SHT30;58451;51.550;7.208;2023-08-07T02:46:37;13.44;87.90
70830;SHT30;58451;51.550;7.208;2023-08-07T02:48:09;13.45;87.87
70830;SHT30;58451;51.550;7.208;2023-08-07T02:49:40;13.46;87.82
70830;SHT30;58451;51.550;7.208;2023-08-07T02:51:12;13.47;87.85
70830;SHT30;58451;51.550;7.208;2023-08-07T02:52:44;13.48;87.90
70830;SHT30;58451;51.550;7.208;2023-08-07T02:54:17;13.50;87.87
70830;SHT30;58451;51.550;7.208;2023-08-07T02:55:48;13.51;87.90
70830;SHT30;58451;51.550;7.208;2023-08-07T02:57:21;13.52;87.83
70830;SHT30;58451;51.550;7.208;2023-08-07T02:58:52;13.52;87.77
70830;SHT30;58451;51.550;7.208;2023-08-07T03:00:24;13.53;87.80
70830;SHT30;58451;51.550;7.208;2023-08-07T03:01:56;13.54;87.82
70830;SHT30;58451;51.550;7.208;2023-08-07T03:03:28;13.55;87.77
70830;SHT30;58451;51.550;7.208;2023-08-07T03:05:00;13.56;87.73
70830;SHT30;58451;51.550;7.208;2023-08-07T03:06:32;13.55;87.72
70830;SHT30;58451;51.550;7.208;2023-08-07T03:08:03;13.56;87.70
70830;SHT30;58451;51.550;7.208;2023-08-07T03:09:35;13.57;87.65
70830;SHT30;58451;51.550;7.208;2023-08-07T03:11:07;13.56;87.62
70830;SHT30;58451;51.550;7.208;2023-08-07T03:12:40;13.56;87.60
70830;SHT30;58451;51.550;7.208;2023-08-07T03:14:11;13.56;87.57
70830;SHT30;58451;51.550;7.208;2023-08-07T03:15:44;13.57;87.62
70830;SHT30;58451;51.550;7.208;2023-08-07T03:17:16;13.56;87.60
70830;SHT30;58451;51.550;7.208;2023-08-07T03:18:47;13.55;87.57
70830;SHT30;58451;51.550;7.208;2023-08-07T03:20:19;13.55;87.60
70830;SHT30;58451;51.550;7.208;2023-08-07T03:21:51;13.53;87.60
70830;SHT30;58451;51.550;7.208;2023-08-07T03:23:24;13.53;87.55
70830;SHT30;58451;51.550;7.208;2023-08-07T03:24:57;13.53;87.60
70830;SHT30;58451;51.550;7.208;2023-08-07T03:26:29;13.52;87.62
70830;SHT30;58451;51.550;7.208;2023-08-07T03:28:01;13.51;87.68
70830;SHT30;58451;51.550;7.208;2023-08-07T03:29:33;13.49;87.77
70830;SHT30;58451;51.550;7.208;2023-08-07T03:31:05;13.46;87.73
70830;SHT30;58451;51.550;7.208;2023-08-07T03:32:38;13.45;87.70
70830;SHT30;58451;51.550;7.208;2023-08-07T03:34:11;13.45;87.75
70830;SHT30;58451;51.550;7.208;2023-08-07T03:35:43;13.46;87.72
70830;SHT30;58451;51.550;7.208;2023-08-07T03:37:15;13.46;87.72
70830;SHT30;58451;51.550;7.208;2023-08-07T03:38:46;13.46;87.70
70830;SHT30;58451;51.550;7.208;2023-08-07T03:40:18;13.45;87.72
70830;SHT30;58451;51.550;7.208;2023-08-07T03:41:50;13.44;87.68
70830;SHT30;58451;51.550;7.208;2023-08-07T03:43:22;13.45;87.73
70830;SHT30;58451;51.550;7.208;2023-08-07T03:44:54;13.45;87.72
70830;SHT30;58451;51.550;7.208;2023-08-07T03:46:26;13.45;87.72
70830;SHT30;58451;51.550;7.208;2023-08-07T03:47:58;13.44;87.82
70830;SHT30;58451;51.550;7.208;2023-08-07T03:49:30;13.45;87.77
70830;SHT30;58451;51.550;7.208;2023-08-07T03:51:03;13.44;87.73
70830;SHT30;58451;51.550;7.208;2023-08-07T03:52:49;13.42;87.78
70830;SHT30;58451;51.550;7.208;2023-08-07T03:54:22;13.41;87.80
70830;SHT30;58451;51.550;7.208;2023-08-07T03:55:53;13.40;87.80
70830;SHT30;58451;51.550;7.208;2023-08-07T03:57:26;13.40;87.80
70830;SHT30;58451;51.550;7.208;2023-08-07T03:58:58;13.39;87.80
70830;SHT30;58451;51.550;7.208;2023-08-07T04:00:30;13.39;87.82
70830;SHT30;58451;51.550;7.208;2023-08-07T04:02:02;13.38;87.83
70830;SHT30;58451;51.550;7.208;2023-08-07T04:03:34;13.38;87.82
70830;SHT30;58451;51.550;7.208;2023-08-07T04:05:07;13.37;87.80
70830;SHT30;58451;51.550;7.208;2023-08-07T04:06:39;13.36;87.85
70830;SHT30;58451;51.550;7.208;2023-08-07T04:08:11;13.35;87.80
70830;SHT30;58451;51.550;7.208;2023-08-07T04:09:42;13.36;87.80
70830;SHT30;58451;51.550;7.208;2023-08-07T04:11:15;13.35;87.83
70830;SHT30;58451;51.550;7.208;2023-08-07T04:12:48;13.35;87.80
70830;SHT30;58451;51.550;7.208;2023-08-07T04:14:21;13.35;87.87
70830;SHT30;58451;51.550;7.208;2023-08-07T04:15:53;13.35;87.85
70830;SHT30;58451;51.550;7.208;2023-08-07T04:17:25;13.36;87.83
70830;SHT30;58451;51.550;7.208;2023-08-07T04:18:58;13.34;87.83
70830;SHT30;58451;51.550;7.208;2023-08-07T04:20:31;13.35;87.90
70830;SHT30;58451;51.550;7.208;2023-08-07T04:22:02;13.34;87.88
70830;SHT30;58451;51.550;7.208;2023-08-07T04:23:36;13.32;87.88
70830;SHT30;58451;51.550;7.208;2023-08-07T04:25:08;13.31;87.87
70830;SHT30;58451;51.550;7.208;2023-08-07T04:26:40;13.30;87.82
70830;SHT30;58451;51.550;7.208;2023-08-07T04:28:12;13.29;87.80
70830;SHT30;58451;51.550;7.208;2023-08-07T04:29:45;13.27;87.80
70830;SHT30;58451;51.550;7.208;2023-08-07T04:31:17;13.29;87.82
70830;SHT30;58451;51.550;7.208;2023-08-07T04:32:49;13.28;87.80
70830;SHT30;58451;51.550;7.208;2023-08-07T04:34:21;13.27;87.80
70830;SHT30;58451;51.550;7.208;2023-08-07T04:35:53;13.27;87.78
70830;SHT30;58451;51.550;7.208;2023-08-07T04:37:24;13.28;87.83
70830;SHT30;58451;51.550;7.208;2023-08-07T04:38:56;13.26;87.78
70830;SHT30;58451;51.550;7.208;2023-08-07T04:40:28;13.27;87.78
70830;SHT30;58451;51.550;7.208;2023-08-07T04:42:00;13.25;87.73
70830;SHT30;58451;51.550;7.208;2023-08-07T04:43:32;13.27;87.80
70830;SHT30;58451;51.550;7.208;2023-08-07T04:45:04;13.27;87.83
70830;SHT30;58451;51.550;7.208;2023-08-07T04:46:37;13.28;87.78
70830;SHT30;58451;51.550;7.208;2023-08-07T04:48:09;13.27;87.75
70830;SHT30;58451;51.550;7.208;2023-08-07T04:49:40;13.28;87.78
70830;SHT30;58451;51.550;7.208;2023-08-07T04:51:12;13.30;87.85
70830;SHT30;58451;51.550;7.208;2023-08-07T04:52:44;13.30;87.78
70830;SHT30;58451;51.550;7.208;2023-08-07T04:54:16;13.30;87.73
70830;SHT30;58451;51.550;7.208;2023-08-07T04:55:48;13.30;87.70
70830;SHT30;58451;51.550;7.208;2023-08-07T04:57:20;13.31;87.72
70830;SHT30;58451;51.550;7.208;2023-08-07T04:58:52;13.31;87.67
70830;SHT30;58451;51.550;7.208;2023-08-07T05:00:24;13.33;87.67
70830;SHT30;58451;51.550;7.208;2023-08-07T05:01:56;13.33;87.63
70830;SHT30;58451;51.550;7.208;2023-08-07T05:03:28;13.34;87.68
70830;SHT30;58451;51.550;7.208;2023-08-07T05:05:02;13.32;87.72
70830;SHT30;58451;51.550;7.208;2023-08-07T05:06:34;13.31;87.72
70830;SHT30;58451;51.550;7.208;2023-08-07T05:08:05;13.32;87.72
70830;SHT30;58451;51.550;7.208;2023-08-07T05:09:37;13.32;87.73
70830;SHT30;58451;51.550;7.208;2023-08-07T05:11:09;13.31;87.70
70830;SHT30;58451;51.550;7.208;2023-08-07T05:12:41;13.30;87.68
70830;SHT30;58451;51.550;7.208;2023-08-07T05:14:13;13.32;87.70
70830;SHT30;58451;51.550;7.208;2023-08-07T05:15:48;13.31;87.72
70830;SHT30;58451;51.550;7.208;2023-08-07T05:17:20;13.32;87.77
70830;SHT30;58451;51.550;7.208;2023-08-07T05:18:52;13.32;87.72
70830;SHT30;58451;51.550;7.208;2023-08-07T05:20:24;13.31;87.67
70830;SHT30;58451;51.550;7.208;2023-08-07T05:21:56;13.32;87.63
70830;SHT30;58451;51.550;7.208;2023-08-07T05:23:28;13.30;87.60
70830;SHT30;58451;51.550;7.208;2023-08-07T05:25:00;13.33;87.65
70830;SHT30;58451;51.550;7.208;2023-08-07T05:26:32;13.33;87.62
70830;SHT30;58451;51.550;7.208;2023-08-07T05:28:04;13.33;87.60
70830;SHT30;58451;51.550;7.208;2023-08-07T05:29:36;13.32;87.60
70830;SHT30;58451;51.550;7.208;2023-08-07T05:31:15;13.29;87.65
70830;SHT30;58451;51.550;7.208;2023-08-07T05:32:46;13.31;87.65
70830;SHT30;58451;51.550;7.208;2023-08-07T05:34:18;13.28;87.65
70830;SHT30;58451;51.550;7.208;2023-08-07T05:35:50;13.26;87.63
70830;SHT30;58451;51.550;7.208;2023-08-07T05:37:24;13.25;87.70
70830;SHT30;58451;51.550;7.208;2023-08-07T05:38:55;13.24;87.75
70830;SHT30;58451;51.550;7.208;2023-08-07T05:40:27;13.24;87.78
70830;SHT30;58451;51.550;7.208;2023-08-07T05:42:01;13.24;87.73
70830;SHT30;58451;51.550;7.208;2023-08-07T05:43:33;13.24;87.70
70830;SHT30;58451;51.550;7.208;2023-08-07T05:45:05;13.27;87.75
70830;SHT30;58451;51.550;7.208;2023-08-07T05:46:37;13.30;87.75
70830;SHT30;58451;51.550;7.208;2023-08-07T05:48:09;13.30;87.77
70830;SHT30;58451;51.550;7.208;2023-08-07T05:49:41;13.34;87.73
70830;SHT30;58451;51.550;7.208;2023-08-07T05:51:13;13.35;87.65
70830;SHT30;58451;51.550;7.208;2023-08-07T05:52:45;13.38;87.62
70830;SHT30;58451;51.550;7.208;2023-08-07T05:54:17;13.37;87.63
70830;SHT30;58451;51.550;7.208;2023-08-07T05:55:49;13.37;87.60
70830;SHT30;58451;51.550;7.208;2023-08-07T05:57:21;13.39;87.60
70830;SHT30;58451;51.550;7.208;2023-08-07T05:58:52;13.39;87.60
70830;SHT30;58451;51.550;7.208;2023-08-07T06:00:24;13.40;87.58
70830;SHT30;58451;51.550;7.208;2023-08-07T06:01:56;13.39;87.53
70830;SHT30;58451;51.550;7.208;2023-08-07T06:03:31;13.40;87.60
70830;SHT30;58451;51.550;7.208;2023-08-07T06:05:04;13.41;87.60
70830;SHT30;58451;51.550;7.208;2023-08-07T06:06:36;13.41;87.55
70830;SHT30;58451;51.550;7.208;2023-08-07T06:08:10;13.43;87.62
70830;SHT30;58451;51.550;7.208;2023-08-07T06:09:42;13.43;87.68
70830;SHT30;58451;51.550;7.208;2023-08-07T06:11:14;13.44;87.63
70830;SHT30;58451;51.550;7.208;2023-08-07T06:12:46;13.42;87.67
70830;SHT30;58451;51.550;7.208;2023-08-07T06:14:17;13.44;87.70
70830;SHT30;58451;51.550;7.208;2023-08-07T06:15:49;13.45;87.77
70830;SHT30;58451;51.550;7.208;2023-08-07T06:17:21;13.47;87.80
70830;SHT30;58451;51.550;7.208;2023-08-07T06:18:53;13.49;87.82
70830;SHT30;58451;51.550;7.208;2023-08-07T06:20:25;13.50;87.73
70830;SHT30;58451;51.550;7.208;2023-08-07T06:21:57;13.53;87.72
70830;SHT30;58451;51.550;7.208;2023-08-07T06:23:30;13.55;87.73
70830;SHT30;58451;51.550;7.208;2023-08-07T06:25:01;13.60;87.73
70830;SHT30;58451;51.550;7.208;2023-08-07T06:26:34;13.64;87.67
70830;SHT30;58451;51.550;7.208;2023-08-07T06:28:05;13.68;87.63
70830;SHT30;58451;51.550;7.208;2023-08-07T06:29:37;13.71;87.60
70830;SHT30;58451;51.550;7.208;2023-08-07T06:31:10;13.75;87.55
70830;SHT30;58451;51.550;7.208;2023-08-07T06:32:43;13.79;87.55
70830;SHT30;58451;51.550;7.208;2023-08-07T06:34:14;13.82;87.47
70830;SHT30;58451;51.550;7.208;2023-08-07T06:35:46;13.85;87.42
70830;SHT30;58451;51.550;7.208;2023-08-07T06:37:18;13.85;87.40
70830;SHT30;58451;51.550;7.208;2023-08-07T06:38:51;13.85;87.40
70830;SHT30;58451;51.550;7.208;2023-08-07T06:40:23;13.88;87.35
70830;SHT30;58451;51.550;7.208;2023-08-07T06:41:55;13.89;87.23
70830;SHT30;58451;51.550;7.208;2023-08-07T06:43:27;13.93;87.20
70830;SHT30;58451;51.550;7.208;2023-08-07T06:44:59;13.98;87.23
70830;SHT30;58451;51.550;7.208;2023-08-07T06:46:31;13.99;87.23
70830;SHT30;58451;51.550;7.208;2023-08-07T06:48:03;14.02;87.22
70830;SHT30;58451;51.550;7.208;2023-08-07T06:49:35;14.07;87.20
70830;SHT30;58451;51.550;7.208;2023-08-07T06:51:06;14.08;87.18
70830;SHT30;58451;51.550;7.208;2023-08-07T06:52:38;14.10;87.12
70830;SHT30;58451;51.550;7.208;2023-08-07T06:54:10;14.10;87.12
70830;SHT30;58451;51.550;7.208;2023-08-07T06:55:42;14.10;87.12
70830;SHT30;58451;51.550;7.208;2023-08-07T06:57:15;14.11;87.08
70830;SHT30;58451;51.550;7.208;2023-08-07T06:58:47;14.11;87.03
70830;SHT30;58451;51.550;7.208;2023-08-07T07:00:18;14.13;87.03
70830;SHT30;58451;51.550;7.208;2023-08-07T07:01:51;14.14;87.12
70830;SHT30;58451;51.550;7.208;2023-08-07T07:03:23;14.16;87.10
70830;SHT30;58451;51.550;7.208;2023-08-07T07:04:55;14.19;87.10
70830;SHT30;58451;51.550;7.208;2023-08-07T07:06:27;14.18;86.97
70830;SHT30;58451;51.550;7.208;2023-08-07T07:07:59;14.18;87.00
70830;SHT30;58451;51.550;7.208;2023-08-07T07:09:31;14.20;86.95
70830;SHT30;58451;51.550;7.208;2023-08-07T07:11:03;14.24;86.88
70830;SHT30;58451;51.550;7.208;2023-08-07T07:12:36;14.31;86.90
70830;SHT30;58451;51.550;7.208;2023-08-07T07:14:08;14.35;86.85
70830;SHT30;58451;51.550;7.208;2023-08-07T07:15:40;14.34;86.80
70830;SHT30;58451;51.550;7.208;2023-08-07T07:17:12;14.30;86.85
70830;SHT30;58451;51.550;7.208;2023-08-07T07:18:43;14.28;86.88
70830;SHT30;58451;51.550;7.208;2023-08-07T07:20:15;14.25;86.80
70830;SHT30;58451;51.550;7.208;2023-08-07T07:21:50;14.21;86.90
70830;SHT30;58451;51.550;7.208;2023-08-07T07:23:22;14.16;86.93
70830;SHT30;58451;51.550;7.208;2023-08-07T07:24:53;14.13;87.00
70830;SHT30;58451;51.550;7.208;2023-08-07T07:26:26;14.14;87.07
70830;SHT30;58451;51.550;7.208;2023-08-07T07:27:57;14.14;87.02
70830;SHT30;58451;51.550;7.208;2023-08-07T07:29:29;14.15;87.02
70830;SHT30;58451;51.550;7.208;2023-08-07T07:31:01;14.15;87.03
70830;SHT30;58451;51.550;7.208;2023-08-07T07:32:35;14.14;87.15
70830;SHT30;58451;51.550;7.208;2023-08-07T07:34:07;14.07;87.20
70830;SHT30;58451;51.550;7.208;2023-08-07T07:35:39;14.03;87.25
70830;SHT30;58451;51.550;7.208;2023-08-07T07:37:11;14.00;87.32
70830;SHT30;58451;51.550;7.208;2023-08-07T07:38:45;14.00;87.37
70830;SHT30;58451;51.550;7.208;2023-08-07T07:40:18;13.99;87.40
70830;SHT30;58451;51.550;7.208;2023-08-07T07:41:50;13.99;87.42
70830;SHT30;58451;51.550;7.208;2023-08-07T07:43:22;13.99;87.48
70830;SHT30;58451;51.550;7.208;2023-08-07T07:44:54;13.99;87.52
70830;SHT30;58451;51.550;7.208;2023-08-07T07:46:26;14.01;87.58
70830;SHT30;58451;51.550;7.208;2023-08-07T07:47:59;14.01;87.55
70830;SHT30;58451;51.550;7.208;2023-08-07T07:49:32;14.02;87.53
70830;SHT30;58451;51.550;7.208;2023-08-07T07:51:04;14.06;87.52
70830;SHT30;58451;51.550;7.208;2023-08-07T07:52:36;14.07;87.52
70830;SHT30;58451;51.550;7.208;2023-08-07T07:54:08;14.10;87.53
70830;SHT30;58451;51.550;7.208;2023-08-07T07:55:48;14.12;87.55
70830;SHT30;58451;51.550;7.208;2023-08-07T07:57:20;14.16;87.52
70830;SHT30;58451;51.550;7.208;2023-08-07T07:58:53;14.19;87.50
70830;SHT30;58451;51.550;7.208;2023-08-07T08:00:24;14.24;87.42
70830;SHT30;58451;51.550;7.208;2023-08-07T08:01:57;14.30;87.32
70830;SHT30;58451;51.550;7.208;2023-08-07T08:03:30;14.35;87.30
70830;SHT30;58451;51.550;7.208;2023-08-07T08:05:02;14.40;87.25
70830;SHT30;58451;51.550;7.208;2023-08-07T08:06:34;14.45;87.22
70830;SHT30;58451;51.550;7.208;2023-08-07T08:08:06;14.52;87.10
70830;SHT30;58451;51.550;7.208;2023-08-07T08:09:39;14.62;87.03
70830;SHT30;58451;51.550;7.208;2023-08-07T08:11:10;14.72;86.88
70830;SHT30;58451;51.550;7.208;2023-08-07T08:12:42;14.77;86.80
70830;SHT30;58451;51.550;7.208;2023-08-07T08:14:14;14.85;86.72
70830;SHT30;58451;51.550;7.208;2023-08-07T08:15:46;14.91;86.48
70830;SHT30;58451;51.550;7.208;2023-08-07T08:17:18;14.94;86.40
70830;SHT30;58451;51.550;7.208;2023-08-07T08:18:50;14.96;86.02
70830;SHT30;58451;51.550;7.208;2023-08-07T08:20:22;14.99;85.80
70830;SHT30;58451;51.550;7.208;2023-08-07T08:21:53;14.98;85.77
70830;SHT30;58451;51.550;7.208;2023-08-07T08:23:26;14.94;85.77
70830;SHT30;58451;51.550;7.208;2023-08-07T08:24:57;14.95;85.93
70830;SHT30;58451;51.550;7.208;2023-08-07T08:26:29;15.01;85.93
70830;SHT30;58451;51.550;7.208;2023-08-07T08:28:01;15.07;85.78
70830;SHT30;58451;51.550;7.208;2023-08-07T08:29:33;15.18;85.73
70830;SHT30;58451;51.550;7.208;2023-08-07T08:31:05;15.29;85.75
70830;SHT30;58451;51.550;7.208;2023-08-07T08:32:38;15.37;85.63
70830;SHT30;58451;51.550;7.208;2023-08-07T08:34:10;15.40;85.68
70830;SHT30;58451;51.550;7.208;2023-08-07T08:35:42;15.37;85.47
70830;SHT30;58451;51.550;7.208;2023-08-07T08:37:15;15.36;85.58
70830;SHT30;58451;51.550;7.208;2023-08-07T08:38:46;15.41;85.57
70830;SHT30;58451;51.550;7.208;2023-08-07T08:40:20;15.38;85.58
70830;SHT30;58451;51.550;7.208;2023-08-07T08:41:52;15.33;85.52
70830;SHT30;58451;51.550;7.208;2023-08-07T08:43:24;15.31;85.58
70830;SHT30;58451;51.550;7.208;2023-08-07T08:44:57;15.34;85.53
70830;SHT30;58451;51.550;7.208;2023-08-07T08:46:31;15.37;85.53
70830;SHT30;58451;51.550;7.208;2023-08-07T08:48:07;15.39;85.58
70830;SHT30;58451;51.550;7.208;2023-08-07T08:49:46;15.47;85.48
70830;SHT30;58451;51.550;7.208;2023-08-07T08:51:21;15.59;85.28
70830;SHT30;58451;51.550;7.208;2023-08-07T08:52:54;15.63;85.03
70830;SHT30;58451;51.550;7.208;2023-08-07T08:54:28;15.70;85.05
70830;SHT30;58451;51.550;7.208;2023-08-07T08:56:00;15.79;84.72
70830;SHT30;58451;51.550;7.208;2023-08-07T08:57:33;15.89;84.42
70830;SHT30;58451;51.550;7.208;2023-08-07T08:59:07;15.99;84.43
70830;SHT30;58451;51.550;7.208;2023-08-07T09:00:39;16.07;84.25
70830;SHT30;58451;51.550;7.208;2023-08-07T09:02:12;16.15;84.10
70830;SHT30;58451;51.550;7.208;2023-08-07T09:03:45;16.25;83.67
70830;SHT30;58451;51.550;7.208;2023-08-07T09:05:18;16.34;83.17
70830;SHT30;58451;51.550;7.208;2023-08-07T09:06:51;16.43;83.40
70830;SHT30;58451;51.550;7.208;2023-08-07T09:08:24;16.48;83.33
70830;SHT30;58451;51.550;7.208;2023-08-07T09:10:01;16.56;83.33
70830;SHT30;58451;51.550;7.208;2023-08-07T09:11:34;16.65;83.18
70830;SHT30;58451;51.550;7.208;2023-08-07T09:13:09;16.75;82.68
70830;SHT30;58451;51.550;7.208;2023-08-07T09:14:49;16.86;83.05
70830;SHT30;58451;51.550;7.208;2023-08-07T09:16:27;16.85;82.50
70830;SHT30;58451;51.550;7.208;2023-08-07T09:18:02;16.69;82.63
70830;SHT30;58451;51.550;7.208;2023-08-07T09:19:39;16.54;83.02
70830;SHT30;58451;51.550;7.208;2023-08-07T09:21:11;16.45;83.35
70830;SHT30;58451;51.550;7.208;2023-08-07T09:22:43;16.45;83.55
70830;SHT30;58451;51.550;7.208;2023-08-07T09:24:15;16.55;83.63
70830;SHT30;58451;51.550;7.208;2023-08-07T09:25:59;16.78;83.47
70830;SHT30;58451;51.550;7.208;2023-08-07T09:27:38;17.05;82.62
70830;SHT30;58451;51.550;7.208;2023-08-07T09:29:11;17.27;82.37
70830;SHT30;58451;51.550;7.208;2023-08-07T09:30:43;17.36;82.18
70830;SHT30;58451;51.550;7.208;2023-08-07T09:32:16;17.38;82.07
70830;SHT30;58451;51.550;7.208;2023-08-07T09:33:50;17.28;81.85
70830;SHT30;58451;51.550;7.208;2023-08-07T09:35:21;17.23;82.07
70830;SHT30;58451;51.550;7.208;2023-08-07T09:36:54;17.28;82.22
70830;SHT30;58451;51.550;7.208;2023-08-07T09:38:29;17.24;81.48
70830;SHT30;58451;51.550;7.208;2023-08-07T09:40:06;17.18;81.27
70830;SHT30;58451;51.550;7.208;2023-08-07T09:41:41;17.19;81.47
70830;SHT30;58451;51.550;7.208;2023-08-07T09:43:19;17.26;81.40
70830;SHT30;58451;51.550;7.208;2023-08-07T09:44:53;17.43;81.23
70830;SHT30;58451;51.550;7.208;2023-08-07T09:46:25;17.53;80.48
70830;SHT30;58451;51.550;7.208;2023-08-07T09:49:34;17.75;79.43